sensor_id;sensor_type;location;lat;lon;timestamp;pressure;altitude;pressure_sealevel;temperature;humidity
6194;BME280;3130;41.564;23.280;2023-05-02T00:00:27;99208.03;;;12.19;86.99
6194;BME280;3130;41.564;23.280;2023-05-02T00:02:55;99211.78;;;12.27;86.75
6194;BME280;3130;41.564;23.280;2023-05-02T00:05:23;99113.66;;;11.81;85.94
6194;BME280;3130;41.564;23.280;2023-05-02T00:07:50;99206.72;;;12.40;86.08
6194;BME280;3130;41.564;23.280;2023-05-02T00:10:17;99211.22;;;12.36;86.44
6194;BME280;3130;41.564;23.280;2023-05-02T00:12:44;99214.97;;;12.45;86.23
6194;BME280;3130;41.564;23.280;2023-05-02T00:15:11;99111.28;;;11.78;85.67
6194;BME280;3130;41.564;23.280;2023-05-02T00:17:40;99215.94;;;12.56;86.00
6194;BME280;3130;41.564;23.280;2023-05-02T00:20:09;99209.06;;;12.57;85.34
6194;BME280;3130;41.564;23.280;2023-05-02T00:22:37;99121.22;;;12.10;84.73
6194;BME280;3130;41.564;23.280;2023-05-02T00:25:05;99213.13;;;12.47;84.61
6194;BME280;3130;41.564;23.280;2023-05-02T00:27:32;99181.53;;;12.18;85.55
6194;BME280;3130;41.564;23.280;2023-05-02T00:29:59;99210.91;;;12.14;86.13
6194;BME280;3130;41.564;23.280;2023-05-02T00:32:26;99199.06;;;12.12;86.24
6194;BME280;3130;41.564;23.280;2023-05-02T00:34:55;99219.88;;;12.21;86.08
6194;BME280;3130;41.564;23.280;2023-05-02T00:37:25;99222.44;;;12.21;86.27
6194;BME280;3130;41.564;23.280;2023-05-02T00:39:52;99223.84;;;12.27;86.15
6194;BME280;3130;41.564;23.280;2023-05-02T00:42:19;99223.91;;;12.25;85.64
6194;BME280;3130;41.564;23.280;2023-05-02T00:44:46;99142.09;;;11.50;86.38
6194;BME280;3130;41.564;23.280;2023-05-02T00:47:13;99136.03;;;11.37;87.35
6194;BME280;3130;41.564;23.280;2023-05-02T00:49:41;99223.88;;;11.85;86.82
6194;BME280;3130;41.564;23.280;2023-05-02T00:52:09;99224.50;;;12.03;87.08
6194;BME280;3130;41.564;23.280;2023-05-02T00:54:36;99205.78;;;12.01;86.22
6194;BME280;3130;41.564;23.280;2023-05-02T00:57:04;99225.44;;;12.02;86.21
6194;BME280;3130;41.564;23.280;2023-05-02T00:59:31;99219.63;;;11.98;86.77
6194;BME280;3130;41.564;23.280;2023-05-02T01:02:05;99106.88;;;11.38;86.12
6194;BME280;3130;41.564;23.280;2023-05-02T01:04:41;99241.31;;;11.94;86.33
6194;BME280;3130;41.564;23.280;2023-05-02T01:07:21;99226.13;;;12.03;86.41
6194;BME280;3130;41.564;23.280;2023-05-02T01:10:01;99224.03;;;12.10;85.74
6194;BME280;3130;41.564;23.280;2023-05-02T01:12:37;99166.72;;;11.68;86.13
6194;BME280;3130;41.564;23.280;2023-05-02T01:15:11;99106.25;;;11.34;85.99
6194;BME280;3130;41.564;23.280;2023-05-02T01:17:41;99221.22;;;12.01;85.90
6194;BME280;3130;41.564;23.280;2023-05-02T01:20:13;99192.91;;;11.87;85.93
6194;BME280;3130;41.564;23.280;2023-05-02T01:22:43;99218.81;;;11.98;86.25
6194;BME280;3130;41.564;23.280;2023-05-02T01:25:19;99220.09;;;11.91;86.27
6194;BME280;3130;41.564;23.280;2023-05-02T01:27:56;99214.44;;;11.86;86.10
6194;BME280;3130;41.564;23.280;2023-05-02T01:30:27;99197.34;;;11.57;86.99
6194;BME280;3130;41.564;23.280;2023-05-02T01:32:56;99221.00;;;11.76;87.30
6194;BME280;3130;41.564;23.280;2023-05-02T01:35:25;99223.41;;;11.65;87.54
6194;BME280;3130;41.564;23.280;2023-05-02T01:37:54;99228.25;;;11.55;88.20
6194;BME280;3130;41.564;23.280;2023-05-02T01:40:24;99181.44;;;11.50;87.84
6194;BME280;3130;41.564;23.280;2023-05-02T01:42:52;99222.22;;;11.70;87.78
6194;BME280;3130;41.564;23.280;2023-05-02T01:45:21;99227.81;;;11.77;86.90
6194;BME280;3130;41.564;23.280;2023-05-02T01:47:51;99222.50;;;11.66;87.18
6194;BME280;3130;41.564;23.280;2023-05-02T01:50:21;99227.75;;;11.49;87.83
6194;BME280;3130;41.564;23.280;2023-05-02T01:52:51;99220.97;;;11.48;88.04
6194;BME280;3130;41.564;23.280;2023-05-02T01:55:19;99221.44;;;11.40;88.90
6194;BME280;3130;41.564;23.280;2023-05-02T01:57:47;99209.09;;;11.31;89.01
6194;BME280;3130;41.564;23.280;2023-05-02T02:00:17;99122.75;;;10.73;88.96
6194;BME280;3130;41.564;23.280;2023-05-02T02:02:45;99098.44;;;10.65;89.22
6194;BME280;3130;41.564;23.280;2023-05-02T02:05:16;99216.56;;;11.50;89.13
6194;BME280;3130;41.564;23.280;2023-05-02T02:07:45;99220.31;;;11.44;88.72
6194;BME280;3130;41.564;23.280;2023-05-02T02:10:12;99093.94;;;10.54;89.18
6194;BME280;3130;41.564;23.280;2023-05-02T02:12:41;99221.22;;;11.43;89.52
6194;BME280;3130;41.564;23.280;2023-05-02T02:15:19;99184.78;;;11.23;89.35
6194;BME280;3130;41.564;23.280;2023-05-02T02:17:52;99211.66;;;11.31;89.96
6194;BME280;3130;41.564;23.280;2023-05-02T02:20:22;99196.63;;;11.25;89.54
6194;BME280;3130;41.564;23.280;2023-05-02T02:22:50;99213.78;;;11.25;90.14
6194;BME280;3130;41.564;23.280;2023-05-02T02:25:19;99217.72;;;11.30;90.27
6194;BME280;3130;41.564;23.280;2023-05-02T02:27:46;99218.94;;;11.39;90.16
6194;BME280;3130;41.564;23.280;2023-05-02T02:30:14;99199.69;;;11.32;89.52
6194;BME280;3130;41.564;23.280;2023-05-02T02:32:41;99200.59;;;11.45;89.70
6194;BME280;3130;41.564;23.280;2023-05-02T02:35:09;99220.44;;;11.57;89.40
6194;BME280;3130;41.564;23.280;2023-05-02T02:37:40;99221.38;;;11.56;89.28
6194;BME280;3130;41.564;23.280;2023-05-02T02:40:18;99214.94;;;11.49;89.48
6194;BME280;3130;41.564;23.280;2023-05-02T02:42:52;99147.94;;;11.10;89.96
6194;BME280;3130;41.564;23.280;2023-05-02T02:45:28;99163.00;;;11.30;89.23
6194;BME280;3130;41.564;23.280;2023-05-02T02:48:04;99193.25;;;11.53;88.61
6194;BME280;3130;41.564;23.280;2023-05-02T02:50:37;99141.16;;;11.23;87.98
6194;BME280;3130;41.564;23.280;2023-05-02T02:53:19;99211.63;;;11.47;88.92
6194;BME280;3130;41.564;23.280;2023-05-02T02:55:56;99085.94;;;10.74;87.97
6194;BME280;3130;41.564;23.280;2023-05-02T02:58:33;99206.09;;;11.39;88.07
6194;BME280;3130;41.564;23.280;2023-05-02T03:01:05;99084.19;;;10.45;88.50
6194;BME280;3130;41.564;23.280;2023-05-02T03:03:37;99208.91;;;11.20;89.06
6194;BME280;3130;41.564;23.280;2023-05-02T03:06:05;99212.59;;;11.30;89.22
6194;BME280;3130;41.564;23.280;2023-05-02T03:08:39;99204.81;;;11.46;88.48
6194;BME280;3130;41.564;23.280;2023-05-02T03:11:06;99203.22;;;11.29;88.32
6194;BME280;3130;41.564;23.280;2023-05-02T03:13:34;99221.13;;;11.31;88.62
6194;BME280;3130;41.564;23.280;2023-05-02T03:16:20;99219.31;;;11.33;88.84
6194;BME280;3130;41.564;23.280;2023-05-02T03:18:52;99123.69;;;10.57;88.96
6194;BME280;3130;41.564;23.280;2023-05-02T03:21:19;99219.97;;;11.07;89.41
6194;BME280;3130;41.564;23.280;2023-05-02T03:23:48;99219.47;;;11.01;89.83
6194;BME280;3130;41.564;23.280;2023-05-02T03:26:15;99117.09;;;10.53;89.62
6194;BME280;3130;41.564;23.280;2023-05-02T03:28:42;99133.13;;;10.56;89.18
6194;BME280;3130;41.564;23.280;2023-05-02T03:31:11;99210.94;;;11.00;89.11
6194;BME280;3130;41.564;23.280;2023-05-02T03:33:38;99239.69;;;11.06;89.33
6194;BME280;3130;41.564;23.280;2023-05-02T03:36:05;99226.53;;;10.97;88.86
6194;BME280;3130;41.564;23.280;2023-05-02T03:38:33;99217.19;;;10.96;88.75
6194;BME280;3130;41.564;23.280;2023-05-02T03:41:01;99222.09;;;11.14;88.35
6194;BME280;3130;41.564;23.280;2023-05-02T03:43:29;99145.28;;;10.82;87.88
6194;BME280;3130;41.564;23.280;2023-05-02T03:45:56;99248.69;;;11.27;87.20
6194;BME280;3130;41.564;23.280;2023-05-02T03:48:23;99247.28;;;11.37;87.37
6194;BME280;3130;41.564;23.280;2023-05-02T03:50:51;99243.31;;;11.32;87.22
6194;BME280;3130;41.564;23.280;2023-05-02T03:53:18;99240.34;;;11.24;87.83
6194;BME280;3130;41.564;23.280;2023-05-02T03:55:45;99247.59;;;11.17;88.09
6194;BME280;3130;41.564;23.280;2023-05-02T03:58:14;99212.00;;;11.11;87.78
6194;BME280;3130;41.564;23.280;2023-05-02T04:00:41;99250.13;;;11.47;87.71
6194;BME280;3130;41.564;23.280;2023-05-02T04:03:08;99253.63;;;11.46;87.63
6194;BME280;3130;41.564;23.280;2023-05-02T04:05:35;99245.84;;;11.61;87.13
6194;BME280;3130;41.564;23.280;2023-05-02T04:08:02;99253.56;;;11.61;86.67
6194;BME280;3130;41.564;23.280;2023-05-02T04:10:29;99252.53;;;11.50;86.03
6194;BME280;3130;41.564;23.280;2023-05-02T04:12:56;99258.47;;;11.36;86.26
6194;BME280;3130;41.564;23.280;2023-05-02T04:15:25;99245.31;;;11.27;87.27
6194;BME280;3130;41.564;23.280;2023-05-02T04:17:52;99158.84;;;10.84;87.27
6194;BME280;3130;41.564;23.280;2023-05-02T04:20:19;99218.28;;;11.35;86.93
6194;BME280;3130;41.564;23.280;2023-05-02T04:22:47;99248.63;;;11.58;86.02
6194;BME280;3130;41.564;23.280;2023-05-02T04:25:15;99258.81;;;11.60;86.29
6194;BME280;3130;41.564;23.280;2023-05-02T04:27:42;99254.88;;;11.68;86.19
6194;BME280;3130;41.564;23.280;2023-05-02T04:30:10;99219.38;;;11.75;85.66
6194;BME280;3130;41.564;23.280;2023-05-02T04:32:38;99270.22;;;11.98;84.97
6194;BME280;3130;41.564;23.280;2023-05-02T04:35:06;99259.03;;;11.99;84.38
6194;BME280;3130;41.564;23.280;2023-05-02T04:37:34;99260.28;;;12.05;84.50
6194;BME280;3130;41.564;23.280;2023-05-02T04:40:01;99215.69;;;11.93;84.71
6194;BME280;3130;41.564;23.280;2023-05-02T04:42:29;99260.66;;;12.13;84.19
6194;BME280;3130;41.564;23.280;2023-05-02T04:44:56;99269.66;;;12.06;85.08
6194;BME280;3130;41.564;23.280;2023-05-02T04:47:23;99255.69;;;12.24;84.64
6194;BME280;3130;41.564;23.280;2023-05-02T04:49:51;99252.94;;;12.27;84.69
6194;BME280;3130;41.564;23.280;2023-05-02T04:52:18;99222.84;;;12.15;84.38
6194;BME280;3130;41.564;23.280;2023-05-02T04:54:45;99253.75;;;12.42;84.04
6194;BME280;3130;41.564;23.280;2023-05-02T04:57:13;99263.44;;;12.51;83.68
6194;BME280;3130;41.564;23.280;2023-05-02T04:59:40;99216.41;;;12.49;82.63
6194;BME280;3130;41.564;23.280;2023-05-02T05:02:08;99248.13;;;12.90;81.91
6194;BME280;3130;41.564;23.280;2023-05-02T05:04:37;99269.38;;;13.06;81.27
6194;BME280;3130;41.564;23.280;2023-05-02T05:07:05;99264.59;;;13.26;81.29
6194;BME280;3130;41.564;23.280;2023-05-02T05:09:32;99263.81;;;13.63;80.45
6194;BME280;3130;41.564;23.280;2023-05-02T05:11:59;99260.72;;;13.83;79.16
6194;BME280;3130;41.564;23.280;2023-05-02T05:14:27;99256.38;;;14.08;78.97
6194;BME280;3130;41.564;23.280;2023-05-02T05:16:55;99245.16;;;14.21;77.91
6194;BME280;3130;41.564;23.280;2023-05-02T05:19:23;99213.41;;;14.21;76.51
6194;BME280;3130;41.564;23.280;2023-05-02T05:21:51;99266.03;;;14.78;76.25
6194;BME280;3130;41.564;23.280;2023-05-02T05:24:19;99262.56;;;15.02;74.74
6194;BME280;3130;41.564;23.280;2023-05-02T05:26:46;99265.72;;;15.29;73.52
6194;BME280;3130;41.564;23.280;2023-05-02T05:29:13;99264.59;;;15.33;73.09
6194;BME280;3130;41.564;23.280;2023-05-02T05:31:41;99276.38;;;15.48;73.06
6194;BME280;3130;41.564;23.280;2023-05-02T05:34:09;99273.41;;;15.41;74.36
6194;BME280;3130;41.564;23.280;2023-05-02T05:36:38;99266.41;;;15.54;72.77
6194;BME280;3130;41.564;23.280;2023-05-02T05:39:05;99164.00;;;14.96;72.14
6194;BME280;3130;41.564;23.280;2023-05-02T05:41:34;99279.72;;;15.72;71.70
6194;BME280;3130;41.564;23.280;2023-05-02T05:44:03;99258.34;;;15.70;71.13
6194;BME280;3130;41.564;23.280;2023-05-02T05:46:30;99275.06;;;15.99;70.61
6194;BME280;3130;41.564;23.280;2023-05-02T05:48:57;99261.03;;;16.01;69.93
6194;BME280;3130;41.564;23.280;2023-05-02T05:51:24;99281.63;;;16.13;69.46
6194;BME280;3130;41.564;23.280;2023-05-02T05:53:52;99264.38;;;16.14;68.82
6194;BME280;3130;41.564;23.280;2023-05-02T05:56:19;99270.94;;;16.29;68.76
6194;BME280;3130;41.564;23.280;2023-05-02T05:58:47;99246.25;;;16.14;68.15
6194;BME280;3130;41.564;23.280;2023-05-02T06:01:15;99274.25;;;16.42;67.93
6194;BME280;3130;41.564;23.280;2023-05-02T06:03:42;99246.97;;;16.38;67.67
6194;BME280;3130;41.564;23.280;2023-05-02T06:06:09;99280.88;;;16.88;66.87
6194;BME280;3130;41.564;23.280;2023-05-02T06:08:36;99274.41;;;17.14;66.58
6194;BME280;3130;41.564;23.280;2023-05-02T06:11:07;99291.47;;;17.79;65.01
6194;BME280;3130;41.564;23.280;2023-05-02T06:13:35;99293.72;;;18.43;63.61
6194;BME280;3130;41.564;23.280;2023-05-02T06:16:04;99290.97;;;20.43;58.82
6194;BME280;3130;41.564;23.280;2023-05-02T06:18:31;99299.63;;;23.58;46.18
6194;BME280;3130;41.564;23.280;2023-05-02T06:21:03;99297.00;;;26.89;36.87
6194;BME280;3130;41.564;23.280;2023-05-02T06:23:30;99223.66;;;28.31;32.47
6194;BME280;3130;41.564;23.280;2023-05-02T06:25:58;99307.34;;;29.82;30.16
6194;BME280;3130;41.564;23.280;2023-05-02T06:28:26;99299.03;;;31.24;28.65
6194;BME280;3130;41.564;23.280;2023-05-02T06:30:57;99279.34;;;32.36;25.79
6194;BME280;3130;41.564;23.280;2023-05-02T06:33:27;99248.06;;;32.74;25.09
6194;BME280;3130;41.564;23.280;2023-05-02T06:35:54;99294.53;;;33.30;24.62
6194;BME280;3130;41.564;23.280;2023-05-02T06:38:21;99315.44;;;33.15;24.33
6194;BME280;3130;41.564;23.280;2023-05-02T06:40:49;99312.19;;;33.54;24.40
6194;BME280;3130;41.564;23.280;2023-05-02T06:43:16;99318.25;;;34.87;22.50
6194;BME280;3130;41.564;23.280;2023-05-02T06:45:44;99321.72;;;36.41;21.04
6194;BME280;3130;41.564;23.280;2023-05-02T06:48:11;99317.53;;;37.36;20.24
6194;BME280;3130;41.564;23.280;2023-05-02T06:50:39;99322.50;;;37.80;19.82
6194;BME280;3130;41.564;23.280;2023-05-02T06:53:06;99304.59;;;37.81;18.92
6194;BME280;3130;41.564;23.280;2023-05-02T06:55:33;99307.19;;;36.92;19.20
6194;BME280;3130;41.564;23.280;2023-05-02T06:58:01;99317.69;;;35.13;21.26
6194;BME280;3130;41.564;23.280;2023-05-02T07:00:28;99271.59;;;36.11;20.10
6194;BME280;3130;41.564;23.280;2023-05-02T07:02:55;99310.31;;;37.94;18.79
6194;BME280;3130;41.564;23.280;2023-05-02T07:05:22;99323.16;;;38.75;17.87
6194;BME280;3130;41.564;23.280;2023-05-02T07:07:50;99312.09;;;38.66;17.73
6194;BME280;3130;41.564;23.280;2023-05-02T07:10:17;99323.84;;;38.14;18.01
6194;BME280;3130;41.564;23.280;2023-05-02T07:12:44;99324.50;;;38.26;18.53
6194;BME280;3130;41.564;23.280;2023-05-02T07:15:11;99329.56;;;40.15;16.90
6194;BME280;3130;41.564;23.280;2023-05-02T07:17:41;99326.47;;;40.71;16.30
6194;BME280;3130;41.564;23.280;2023-05-02T07:20:09;99298.94;;;39.96;16.02
6194;BME280;3130;41.564;23.280;2023-05-02T07:22:36;99330.25;;;38.44;17.08
6194;BME280;3130;41.564;23.280;2023-05-02T07:25:06;99326.06;;;36.64;18.96
6194;BME280;3130;41.564;23.280;2023-05-02T07:27:33;99326.56;;;36.07;19.52
6194;BME280;3130;41.564;23.280;2023-05-02T07:30:00;99326.69;;;32.81;22.83
6194;BME280;3130;41.564;23.280;2023-05-02T07:32:27;99320.88;;;35.54;20.32
6194;BME280;3130;41.564;23.280;2023-05-02T07:34:54;99274.91;;;37.56;17.96
6194;BME280;3130;41.564;23.280;2023-05-02T07:37:22;99329.13;;;38.92;17.19
6194;BME280;3130;41.564;23.280;2023-05-02T07:39:49;99313.63;;;38.47;17.92
6194;BME280;3130;41.564;23.280;2023-05-02T07:42:17;99308.88;;;37.82;18.12
6194;BME280;3130;41.564;23.280;2023-05-02T07:44:44;99331.81;;;38.41;17.82
6194;BME280;3130;41.564;23.280;2023-05-02T07:47:11;99282.28;;;37.39;18.53
6194;BME280;3130;41.564;23.280;2023-05-02T07:49:39;99331.25;;;36.00;19.75
6194;BME280;3130;41.564;23.280;2023-05-02T07:52:06;99326.38;;;35.80;19.68
6194;BME280;3130;41.564;23.280;2023-05-02T07:54:34;99314.50;;;35.71;19.73
6194;BME280;3130;41.564;23.280;2023-05-02T07:57:02;99302.63;;;36.33;18.76
6194;BME280;3130;41.564;23.280;2023-05-02T07:59:34;99320.81;;;37.69;18.11
6194;BME280;3130;41.564;23.280;2023-05-02T08:02:01;99307.56;;;36.84;17.79
6194;BME280;3130;41.564;23.280;2023-05-02T08:04:28;99321.50;;;36.43;19.29
6194;BME280;3130;41.564;23.280;2023-05-02T08:06:55;99320.66;;;36.59;18.04
6194;BME280;3130;41.564;23.280;2023-05-02T08:09:22;99322.66;;;36.30;18.46
6194;BME280;3130;41.564;23.280;2023-05-02T08:11:49;99309.66;;;36.01;19.05
6194;BME280;3130;41.564;23.280;2023-05-02T08:14:16;99306.28;;;34.27;20.38
6194;BME280;3130;41.564;23.280;2023-05-02T08:16:44;99320.41;;;31.67;23.10
6194;BME280;3130;41.564;23.280;2023-05-02T08:19:11;99307.97;;;29.58;25.69
6194;BME280;3130;41.564;23.280;2023-05-02T08:21:39;99301.19;;;28.30;26.97
6194;BME280;3130;41.564;23.280;2023-05-02T08:24:06;99265.03;;;26.92;29.61
6194;BME280;3130;41.564;23.280;2023-05-02T08:26:33;99217.28;;;25.73;31.22
6194;BME280;3130;41.564;23.280;2023-05-02T08:29:00;99305.31;;;25.54;32.10
6194;BME280;3130;41.564;23.280;2023-05-02T08:31:28;99298.09;;;25.04;33.09
6194;BME280;3130;41.564;23.280;2023-05-02T08:33:57;99223.31;;;24.39;33.75
6194;BME280;3130;41.564;23.280;2023-05-02T08:36:24;99297.41;;;25.10;33.47
6194;BME280;3130;41.564;23.280;2023-05-02T08:38:53;99292.50;;;25.07;33.50
6194;BME280;3130;41.564;23.280;2023-05-02T08:41:21;99291.00;;;25.04;33.76
6194;BME280;3130;41.564;23.280;2023-05-02T08:43:48;99267.66;;;24.56;34.40
6194;BME280;3130;41.564;23.280;2023-05-02T08:46:16;99281.66;;;24.41;35.41
6194;BME280;3130;41.564;23.280;2023-05-02T08:48:44;99285.78;;;24.28;36.20
6194;BME280;3130;41.564;23.280;2023-05-02T08:51:15;99251.38;;;24.23;36.50
6194;BME280;3130;41.564;23.280;2023-05-02T08:53:43;99252.28;;;24.46;36.47
6194;BME280;3130;41.564;23.280;2023-05-02T08:56:12;99274.78;;;24.78;35.43
6194;BME280;3130;41.564;23.280;2023-05-02T08:58:40;99273.44;;;24.52;35.54
6194;BME280;3130;41.564;23.280;2023-05-02T09:01:09;99273.19;;;24.23;35.88
6194;BME280;3130;41.564;23.280;2023-05-02T09:03:39;99251.63;;;24.05;36.34
6194;BME280;3130;41.564;23.280;2023-05-02T09:06:09;99272.59;;;24.51;36.19
6194;BME280;3130;41.564;23.280;2023-05-02T09:08:40;99191.69;;;23.94;36.42
6194;BME280;3130;41.564;23.280;2023-05-02T09:11:08;99168.97;;;23.71;36.87
6194;BME280;3130;41.564;23.280;2023-05-02T09:13:38;99270.53;;;24.31;36.62
6194;BME280;3130;41.564;23.280;2023-05-02T09:16:07;99270.44;;;24.01;37.26
6194;BME280;3130;41.564;23.280;2023-05-02T09:18:36;99268.00;;;23.75;37.20
6194;BME280;3130;41.564;23.280;2023-05-02T09:21:06;99137.97;;;23.04;37.10
6194;BME280;3130;41.564;23.280;2023-05-02T09:23:40;99261.31;;;23.81;36.30
6194;BME280;3130;41.564;23.280;2023-05-02T09:26:12;99255.91;;;23.66;37.26
6194;BME280;3130;41.564;23.280;2023-05-02T09:28:41;99254.25;;;23.73;37.71
6194;BME280;3130;41.564;23.280;2023-05-02T09:31:09;99255.75;;;23.84;36.35
6194;BME280;3130;41.564;23.280;2023-05-02T09:33:38;99251.66;;;23.81;35.88
6194;BME280;3130;41.564;23.280;2023-05-02T09:36:06;99256.72;;;23.83;34.88
6194;BME280;3130;41.564;23.280;2023-05-02T09:38:34;99235.28;;;23.71;35.57
6194;BME280;3130;41.564;23.280;2023-05-02T09:41:03;99237.72;;;23.65;35.37
6194;BME280;3130;41.564;23.280;2023-05-02T09:43:30;99221.88;;;23.50;35.89
6194;BME280;3130;41.564;23.280;2023-05-02T09:45:59;99229.06;;;23.56;36.03
6194;BME280;3130;41.564;23.280;2023-05-02T09:48:27;99148.13;;;23.07;35.95
6194;BME280;3130;41.564;23.280;2023-05-02T09:50:55;99221.72;;;23.36;36.92
6194;BME280;3130;41.564;23.280;2023-05-02T09:53:24;99218.09;;;23.53;35.39
6194;BME280;3130;41.564;23.280;2023-05-02T09:56:03;99200.78;;;23.36;35.84
6194;BME280;3130;41.564;23.280;2023-05-02T09:58:30;99217.81;;;23.40;35.32
6194;BME280;3130;41.564;23.280;2023-05-02T10:00:58;99211.25;;;23.44;35.74
6194;BME280;3130;41.564;23.280;2023-05-02T10:03:26;99100.50;;;22.56;36.34
6194;BME280;3130;41.564;23.280;2023-05-02T10:05:54;99215.16;;;23.48;36.31
6194;BME280;3130;41.564;23.280;2023-05-02T10:08:25;99203.53;;;23.82;34.80
6194;BME280;3130;41.564;23.280;2023-05-02T10:10:54;99112.63;;;23.13;35.94
6194;BME280;3130;41.564;23.280;2023-05-02T10:13:24;99205.00;;;23.61;35.83
6194;BME280;3130;41.564;23.280;2023-05-02T10:15:58;99211.06;;;23.77;35.08
6194;BME280;3130;41.564;23.280;2023-05-02T10:18:28;99204.97;;;23.69;35.61
6194;BME280;3130;41.564;23.280;2023-05-02T10:20:57;99201.25;;;23.40;37.27
6194;BME280;3130;41.564;23.280;2023-05-02T10:23:28;99203.88;;;23.08;38.02
6194;BME280;3130;41.564;23.280;2023-05-02T10:25:57;99208.13;;;23.09;37.81
6194;BME280;3130;41.564;23.280;2023-05-02T10:28:26;99197.19;;;23.21;37.90
6194;BME280;3130;41.564;23.280;2023-05-02T10:30:53;99201.72;;;23.03;38.01
6194;BME280;3130;41.564;23.280;2023-05-02T10:33:21;99192.25;;;23.02;36.66
6194;BME280;3130;41.564;23.280;2023-05-02T10:35:48;99200.59;;;23.38;37.54
6194;BME280;3130;41.564;23.280;2023-05-02T10:38:18;99188.34;;;23.38;37.18
6194;BME280;3130;41.564;23.280;2023-05-02T10:40:55;99190.97;;;23.38;37.81
6194;BME280;3130;41.564;23.280;2023-05-02T10:43:26;99195.06;;;23.17;37.78
6194;BME280;3130;41.564;23.280;2023-05-02T10:45:54;99185.91;;;23.37;38.08
6194;BME280;3130;41.564;23.280;2023-05-02T10:48:22;99188.53;;;23.13;37.79
6194;BME280;3130;41.564;23.280;2023-05-02T10:50:52;99101.66;;;22.69;38.12
6194;BME280;3130;41.564;23.280;2023-05-02T10:53:27;99193.59;;;23.38;37.43
6194;BME280;3130;41.564;23.280;2023-05-02T10:56:08;99192.75;;;23.22;37.60
6194;BME280;3130;41.564;23.280;2023-05-02T10:58:38;99190.47;;;23.11;38.53
6194;BME280;3130;41.564;23.280;2023-05-02T11:01:35;99173.41;;;22.75;38.98
6194;BME280;3130;41.564;23.280;2023-05-02T11:04:08;99193.19;;;22.77;39.23
6194;BME280;3130;41.564;23.280;2023-05-02T11:06:36;99178.00;;;22.81;39.79
6194;BME280;3130;41.564;23.280;2023-05-02T11:09:31;99183.41;;;22.87;38.36
6194;BME280;3130;41.564;23.280;2023-05-02T11:12:02;99177.69;;;23.00;38.33
6194;BME280;3130;41.564;23.280;2023-05-02T11:14:47;99178.53;;;23.32;38.49
6194;BME280;3130;41.564;23.280;2023-05-02T11:17:15;99176.88;;;23.47;37.70
6194;BME280;3130;41.564;23.280;2023-05-02T11:22:57;99056.66;;;23.22;35.80
6194;BME280;3130;41.564;23.280;2023-05-02T11:25:32;99164.56;;;23.71;36.25
6194;BME280;3130;41.564;23.280;2023-05-02T11:28:00;99134.19;;;23.31;35.97
6194;BME280;3130;41.564;23.280;2023-05-02T11:30:42;99139.44;;;23.31;36.38
6194;BME280;3130;41.564;23.280;2023-05-02T11:33:17;99160.78;;;23.66;36.19
6194;BME280;3130;41.564;23.280;2023-05-02T11:35:46;99157.75;;;24.01;35.34
6194;BME280;3130;41.564;23.280;2023-05-02T11:38:15;99135.69;;;23.95;35.46
6194;BME280;3130;41.564;23.280;2023-05-02T11:40:56;99156.75;;;24.10;34.64
6194;BME280;3130;41.564;23.280;2023-05-02T11:43:25;99154.00;;;24.34;34.23
6194;BME280;3130;41.564;23.280;2023-05-02T11:45:54;99130.78;;;24.23;33.12
6194;BME280;3130;41.564;23.280;2023-05-02T11:48:23;99148.28;;;24.30;32.70
6194;BME280;3130;41.564;23.280;2023-05-02T11:50:53;99142.00;;;24.47;32.02
6194;BME280;3130;41.564;23.280;2023-05-02T11:53:22;99111.44;;;24.24;31.75
6194;BME280;3130;41.564;23.280;2023-05-02T11:55:50;99129.28;;;24.58;30.58
6194;BME280;3130;41.564;23.280;2023-05-02T11:58:20;99049.94;;;24.12;29.80
6194;BME280;3130;41.564;23.280;2023-05-02T12:00:48;99129.38;;;24.51;29.40
6194;BME280;3130;41.564;23.280;2023-05-02T12:03:26;99132.34;;;24.40;30.18
6194;BME280;3130;41.564;23.280;2023-05-02T12:05:54;99127.59;;;24.13;29.57
6194;BME280;3130;41.564;23.280;2023-05-02T12:08:23;99115.63;;;24.10;30.14
6194;BME280;3130;41.564;23.280;2023-05-02T12:10:52;99120.03;;;23.79;29.59
6194;BME280;3130;41.564;23.280;2023-05-02T12:13:20;99121.47;;;23.82;29.75
6194;BME280;3130;41.564;23.280;2023-05-02T12:15:49;99126.06;;;23.72;28.94
6194;BME280;3130;41.564;23.280;2023-05-02T12:18:18;99101.56;;;23.57;29.49
6194;BME280;3130;41.564;23.280;2023-05-02T12:20:50;99092.75;;;23.50;29.86
6194;BME280;3130;41.564;23.280;2023-05-02T12:23:18;99125.56;;;23.76;28.57
6194;BME280;3130;41.564;23.280;2023-05-02T12:25:46;98999.66;;;23.09;28.94
6194;BME280;3130;41.564;23.280;2023-05-02T12:28:16;99099.91;;;23.80;28.69
6194;BME280;3130;41.564;23.280;2023-05-02T12:30:45;99072.78;;;23.57;28.46
6194;BME280;3130;41.564;23.280;2023-05-02T12:33:13;99011.31;;;23.29;28.80
6194;BME280;3130;41.564;23.280;2023-05-02T12:35:41;99088.72;;;24.16;27.83
6194;BME280;3130;41.564;23.280;2023-05-02T12:38:14;99092.31;;;24.23;27.15
6194;BME280;3130;41.564;23.280;2023-05-02T12:40:49;99054.31;;;24.19;27.94
6194;BME280;3130;41.564;23.280;2023-05-02T12:43:17;99086.31;;;24.37;27.13
6194;BME280;3130;41.564;23.280;2023-05-02T12:45:44;99079.72;;;24.41;26.87
6194;BME280;3130;41.564;23.280;2023-05-02T12:48:21;99063.63;;;24.52;26.77
6194;BME280;3130;41.564;23.280;2023-05-02T12:50:49;99076.03;;;24.58;27.06
6194;BME280;3130;41.564;23.280;2023-05-02T12:53:36;99066.41;;;24.73;26.70
6194;BME280;3130;41.564;23.280;2023-05-02T12:56:04;99067.78;;;24.98;26.94
6194;BME280;3130;41.564;23.280;2023-05-02T12:58:40;99071.03;;;25.22;26.26
6194;BME280;3130;41.564;23.280;2023-05-02T13:01:08;99059.00;;;25.13;26.84
6194;BME280;3130;41.564;23.280;2023-05-02T13:03:36;99062.25;;;25.15;26.33
6194;BME280;3130;41.564;23.280;2023-05-02T13:06:03;99064.31;;;24.83;26.77
6194;BME280;3130;41.564;23.280;2023-05-02T13:08:32;99011.19;;;24.66;26.95
6194;BME280;3130;41.564;23.280;2023-05-02T13:11:00;99071.53;;;25.03;26.14
6194;BME280;3130;41.564;23.280;2023-05-02T13:13:27;99068.69;;;24.76;26.56
6194;BME280;3130;41.564;23.280;2023-05-02T13:15:55;99057.69;;;24.58;26.56
6194;BME280;3130;41.564;23.280;2023-05-02T13:18:22;99061.84;;;24.67;26.74
6194;BME280;3130;41.564;23.280;2023-05-02T13:20:49;99064.13;;;24.70;26.48
6194;BME280;3130;41.564;23.280;2023-05-02T13:23:16;99060.25;;;24.80;26.08